地図

経路データ

SID SEASON NUMBER BASIN SUBBASIN NAME ISO_TIME NATURE LAT LON WMO_WIND WMO_PRES WMO_AGENCY TRACK_TYPE DIST2LAND LANDFALL IFLAG USA_AGENCY USA_ATCF_ID USA_LAT USA_LON USA_RECORD USA_STATUS USA_WIND USA_PRES USA_SSHS USA_R34_NE USA_R34_SE USA_R34_SW USA_R34_NW USA_R50_NE USA_R50_SE USA_R50_SW USA_R50_NW USA_R64_NE USA_R64_SE USA_R64_SW USA_R64_NW USA_POCI USA_ROCI USA_RMW USA_EYE TOKYO_LAT TOKYO_LON TOKYO_GRADE TOKYO_WIND TOKYO_PRES TOKYO_R50_DIR TOKYO_R50_LONG TOKYO_R50_SHORT TOKYO_R30_DIR TOKYO_R30_LONG TOKYO_R30_SHORT TOKYO_LAND CMA_LAT CMA_LON CMA_CAT CMA_WIND CMA_PRES HKO_LAT HKO_LON HKO_CAT HKO_WIND HKO_PRES NEWDELHI_LAT NEWDELHI_LON NEWDELHI_GRADE NEWDELHI_WIND NEWDELHI_PRES NEWDELHI_CI NEWDELHI_DP NEWDELHI_POCI REUNION_LAT REUNION_LON REUNION_TYPE REUNION_WIND REUNION_PRES REUNION_TNUM REUNION_CI REUNION_RMW REUNION_R34_NE REUNION_R34_SE REUNION_R34_SW REUNION_R34_NW REUNION_R50_NE REUNION_R50_SE REUNION_R50_SW REUNION_R50_NW REUNION_R64_NE REUNION_R64_SE REUNION_R64_SW REUNION_R64_NW BOM_LAT BOM_LON BOM_TYPE BOM_WIND BOM_PRES BOM_TNUM BOM_CI BOM_RMW BOM_R34_NE BOM_R34_SE BOM_R34_SW BOM_R34_NW BOM_R50_NE BOM_R50_SE BOM_R50_SW BOM_R50_NW BOM_R64_NE BOM_R64_SE BOM_R64_SW BOM_R64_NW BOM_ROCI BOM_POCI BOM_EYE BOM_POS_METHOD BOM_PRES_METHOD NADI_LAT NADI_LON NADI_CAT NADI_WIND NADI_PRES WELLINGTON_LAT WELLINGTON_LON WELLINGTON_WIND WELLINGTON_PRES DS824_LAT DS824_LON DS824_STAGE DS824_WIND DS824_PRES TD9636_LAT TD9636_LON TD9636_STAGE TD9636_WIND TD9636_PRES TD9635_LAT TD9635_LON TD9635_WIND TD9635_PRES TD9635_ROCI NEUMANN_LAT NEUMANN_LON NEUMANN_CLASS NEUMANN_WIND NEUMANN_PRES MLC_LAT MLC_LON MLC_CLASS MLC_WIND MLC_PRES USA_GUST BOM_GUST BOM_GUST_PER REUNION_GUST REUNION_GUST_PER USA_SEAHGT USA_SEARAD_NE USA_SEARAD_SE USA_SEARAD_SW USA_SEARAD_NW STORM_SPEED STORM_DIR
1974050S19184 1974 15 SP MM NOT_NAMED 1974-02-19 00:00:00 TS -19.0000 184.000 main 498 498 O________OO_O_ jtwc_sh SH231974 -19.0000 -176.000 -1 -19.0000 184.000 TC 35 -19.0000 -176.000 2 -19.0000 -176.000 TC 25 9 101
1974050S19184 1974 15 SP MM NOT_NAMED 1974-02-19 03:00:00 TS -19.0799 184.445 main 541 541 P________PP_P_ SH231974 -19.1054 -175.500 -1 -19.1054 -175.500 TC 35 -19.0711 -175.579 2 -19.0376 -175.642 TC 27 8 102
1974050S19184 1974 15 SP MM NOT_NAMED 1974-02-19 06:00:00 TS -19.1633 184.821 main 583 583 O________OP_O_ jtwc_sh SH231974 -19.2000 -175.100 -1 -19.2000 184.900 TC 35 -19.1532 -175.216 2 -19.1000 -175.300 TC 30 6 107
1974050S19184 1974 15 SP MM NOT_NAMED 1974-02-19 09:00:00 TS -19.2601 185.061 main 616 616 P________PP_P_ SH231974 -19.2847 -174.888 -1 -19.2847 -174.888 TC 35 -19.2587 -174.970 2 -19.2124 -175.010 TC 32 4 132
1974050S19184 1974 15 SP MM NOT_NAMED 1974-02-19 12:00:00 TS -19.4000 185.100 main 621 614 O________OO_O_ jtwc_sh SH231974 -19.4000 -174.900 -1 -19.4000 185.100 TC 35 -19.4000 -174.900 2 -19.4000 -174.900 TC 35 4 202
1974050S19184 1974 15 SP MM NOT_NAMED 1974-02-19 15:00:00 TS -19.6259 184.898 main 614 599 P________PP_P_ SH231974 -19.6001 -175.147 -1 -19.6001 -175.147 TC 35 -19.5806 -175.040 2 -19.7225 -175.075 TC 35 7 229
1974050S19184 1974 15 SP MM NOT_NAMED 1974-02-19 18:00:00 TS -19.8420 184.568 main 599 579 O________OP_O_ jtwc_sh SH231974 -19.8000 -175.500 -1 -19.8000 184.500 TC 35 -19.7681 -175.328 2 -20.0000 -175.400 TC 35 7 240
1974050S19184 1974 15 SP MM NOT_NAMED 1974-02-19 21:00:00 TS -19.9679 184.264 main 586 561 P________PP_P_ SH231974 -19.9450 -175.773 -1 -19.9450 -175.773 TC 35 -19.9215 -175.678 2 -20.0601 -175.723 TC 35 6 254
1974050S19184 1974 15 SP MM NOT_NAMED 1974-02-20 00:00:00 TS -20.0000 184.000 main 561 538 O________OO_O_ jtwc_sh SH231974 -20.0000 -176.000 -1 -20.0000 184.000 TC 35 -20.0000 -176.000 2 -20.0000 -176.000 TC 35 4 274
1974050S19184 1974 15 SP MM NOT_NAMED 1974-02-20 03:00:00 TS -19.9368 183.840 main 538 523 P________PP_P_ SH231974 -19.9375 -176.173 -1 -19.9375 -176.173 TC 35 -19.9498 -176.173 2 -19.9224 -176.122 TC 35 3 307
1974050S19184 1974 15 SP MM NOT_NAMED 1974-02-20 06:00:00 TS -19.8062 183.724 main 523 507 O________OP_O_ jtwc_sh SH231974 -19.8000 -176.300 -1 -19.8000 183.700 TC 35 -19.8247 -176.303 2 -19.8000 -176.200 TC 35 4 322
1974050S19184 1974 15 SP MM NOT_NAMED 1974-02-20 09:00:00 TS -19.6493 183.607 main 500 485 P________PP_P_ SH231974 -19.6425 -176.408 -1 -19.6425 -176.408 TC 35 -19.6623 -176.407 2 -19.6500 -176.350 TC 35 4 326
1974050S19184 1974 15 SP MM NOT_NAMED 1974-02-20 12:00:00 TS -19.5000 183.500 main 485 470 O________OO_O_ jtwc_sh SH231974 -19.5000 -176.500 -1 -19.5000 183.500 TC 35 -19.5000 -176.500 2 -19.5000 -176.500 TC 35 3 319
1974050S19184 1974 15 SP MM NOT_NAMED 1974-02-20 15:00:00 TS -19.4263 183.406 main 470 462 P________PP_P_ SH231974 -19.4500 -176.600 -1 -19.4500 -176.600 TC 35 -19.4128 -176.570 2 -19.3925 -176.607 TC 35 2 310
1974050S19184 1974 15 SP MM NOT_NAMED 1974-02-20 18:00:00 TS -19.3574 183.315 main 462 447 O________OP_O_ jtwc_sh SH231974 -19.4000 -176.700 -1 -19.4000 183.300 TC 35 -19.3295 -176.639 2 -19.3000 -176.700 TC 35 2 318
1974050S19184 1974 15 SP MM NOT_NAMED 1974-02-20 21:00:00 TS -19.2497 183.238 main 440 425 P________PP_P_ SH231974 -19.2724 -176.770 -1 -19.2724 -176.770 TC 35 -19.2315 -176.739 2 -19.2224 -176.770 TC 37 3 322
1974050S19184 1974 15 SP MM NOT_NAMED 1974-02-21 00:00:00 TS -19.1000 183.100 main 425 395 O________OO_O_ jtwc_sh SH231974 -19.1000 -176.900 -1 -19.1000 183.100 TC 35 -19.1000 -176.900 2 -19.1000 -176.900 TC 40 5 313
1974050S19184 1974 15 SP MM NOT_NAMED 1974-02-21 03:00:00 TS -18.9016 182.836 main 386 347 P________PP_P_ SH231974 -18.9150 -177.162 -1 -18.9150 -177.162 TC 35 -18.9113 -177.169 2 -18.8650 -177.163 TC 42 7 307
1974050S19184 1974 15 SP MM NOT_NAMED 1974-02-21 06:00:00 TS -18.6720 182.500 main 347 302 O________OP_O_ jtwc_sh SH231974 -18.7000 -177.500 -1 -18.7000 182.500 TC 35 -18.6879 -177.498 2 -18.6000 -177.500 TC 45 8 306
1974050S19184 1974 15 SP MM NOT_NAMED 1974-02-21 09:00:00 TS -18.4346 182.145 main 294 255 P________PP_P_ SH231974 -18.4501 -177.858 -1 -18.4501 -177.858 TC 35 -18.4456 -177.853 2 -18.3925 -177.850 TC 45 8 305
1974050S19184 1974 15 SP MM NOT_NAMED 1974-02-21 12:00:00 TS -18.2000 181.800 main 255 216 O________OO_O_ jtwc_sh SH231974 -18.2000 -178.200 -1 -18.2000 181.800 TC 35 -18.2000 -178.200 2 -18.2000 -178.200 TC 45 7 307
1974050S19184 1974 15 SP MM NOT_NAMED 1974-02-21 15:00:00 TS -17.9863 181.528 main 216 186 P________PP_P_ SH231974 -17.9999 -178.457 -1 -17.9999 -178.457 TC 35 -17.9378 -178.457 2 -18.0075 -178.515 TC 42 7 311
1974050S19184 1974 15 SP MM NOT_NAMED 1974-02-21 18:00:00 TS -17.7704 181.274 main 186 140 O________OP_O_ jtwc_sh SH231974 -17.8000 -178.700 -1 -17.8000 181.300 TC 35 -17.6816 -178.705 2 -17.8000 -178.800 TC 40 7 314
1974050S19184 1974 15 SP MM NOT_NAMED 1974-02-21 21:00:00 TS -17.5160 181.014 main 140 101 P________PP_P_ SH231974 -17.5349 -178.970 -1 -17.5349 -178.970 TC 35 -17.4596 -178.976 2 -17.5348 -179.027 TC 37 7 311
1974050S19184 1974 15 SP MM NOT_NAMED 1974-02-22 00:00:00 TS -17.3000 180.700 main 101 61 O________OO_O_ jtwc_sh SH231974 -17.3000 -179.300 -1 -17.3000 180.700 TC 35 -17.3000 -179.300 2 -17.3000 -179.300 TC 35 8 297
1974050S19184 1974 15 SP MM NOT_NAMED 1974-02-22 03:00:00 TS -17.1584 180.278 main 61 33 P________PP_P_ SH231974 -17.1475 -179.720 -1 -17.1475 -179.720 TC 35 -17.1911 -179.734 2 -17.1475 -179.713 TC 35 9 282
1974050S19184 1974 15 SP MM NOT_NAMED 1974-02-22 06:00:00 TS -17.1127 179.795 main 35 30 O________OP_O_ jtwc_sh SH231974 -17.1000 179.800 -1 -17.1000 179.800 TC 35 -17.1507 179.780 2 -17.1000 179.800 TC 35 9 271
1974050S19184 1974 15 SP MM NOT_NAMED 1974-02-22 09:00:00 TS -17.1456 179.289 main 30 30 P________PP_P_ SH231974 -17.1325 179.292 -1 -17.1325 179.292 TC 35 -17.1848 179.278 2 -17.1325 179.292 TC 35 10 259
1974050S19184 1974 15 SP MM NOT_NAMED 1974-02-22 12:00:00 TS -17.3000 178.800 main 35 0 O________OO_O_ jtwc_sh SH231974 -17.3000 178.800 -1 -17.3000 178.800 TC 35 -17.3000 178.800 2 -17.3000 178.800 TC 35 10 241
1974050S19184 1974 15 SP MM NOT_NAMED 1974-02-22 15:00:00 TS -17.6224 178.381 main 0 0 P________PP_P_ SH231974 -17.6349 178.378 -1 -17.6349 178.378 TC 35 -17.5849 178.390 2 -17.6349 178.378 TC 35 10 228
1974050S19184 1974 15 SP MM NOT_NAMED 1974-02-22 18:00:00 TS -17.9830 178.002 main 0 0 O________OP_O_ jtwc_sh SH231974 -18.0000 178.000 -1 -18.0000 178.000 TC 35 -17.9320 178.008 2 -18.0000 178.000 TC 35 10 227
1974050S19184 1974 15 SP MM NOT_NAMED 1974-02-22 21:00:00 TS -18.2751 177.645 main 11 11 P________PP_P_ SH231974 -18.2899 177.643 -1 -18.2899 177.643 TC 35 -18.2381 177.646 2 -18.2823 177.650 TC 35 8 238
1974050S19184 1974 15 SP MM NOT_NAMED 1974-02-23 00:00:00 TS -18.4000 177.300 main 33 30 O________OO_O_ jtwc_sh SH231974 -18.4000 177.300 -1 -18.4000 177.300 TC 35 -18.4000 177.300 2 -18.4000 177.300 TC 35 7 272
1974050S19184 1974 15 SP MM NOT_NAMED 1974-02-23 03:00:00 TS -18.2559 176.924 main 46 38 P________PP_P_ SH231974 -18.2250 176.942 -1 -18.2250 176.942 TC 35 -18.2912 176.927 2 -18.2826 176.885 TC 35 8 303
1974050S19184 1974 15 SP MM NOT_NAMED 1974-02-23 06:00:00 TS -17.9575 176.568 main 63 63 O________OP_O_ jtwc_sh SH231974 -17.9000 176.600 -1 -17.9000 176.600 TC 35 -18.0301 176.573 2 -18.0000 176.500 TC 35 9 314
1974050S19184 1974 15 SP MM NOT_NAMED 1974-02-23 09:00:00 TS -17.6397 176.256 main 105 105 P________PP_P_ SH231974 -17.6075 176.278 -1 -17.6075 176.278 TC 35 -17.6788 176.258 2 -17.6649 176.212 TC 35 9 321
1974050S19184 1974 15 SP MM NOT_NAMED 1974-02-23 12:00:00 TS -17.3000 176.000 main 149 149 O________OO_O_ jtwc_sh SH231974 -17.3000 176.000 -1 -17.3000 176.000 TC 35 -17.3000 176.000 2 -17.3000 176.000 TC 35 8 326
1974050S19184 1974 15 SP MM NOT_NAMED 1974-02-23 15:00:00 TS -16.9898 175.791 main 182 182 P________PP_P_ SH231974 -17.0075 175.763 -1 -17.0075 175.763 TC 35 -16.9443 175.810 2 -17.0000 175.828 TC 32 7 331
1974050S19184 1974 15 SP MM NOT_NAMED 1974-02-23 18:00:00 TS -16.6787 175.644 main 216 216 O________OP_O_ jtwc_sh SH231974 -16.7000 175.600 -1 -16.7000 175.600 TC 35 -16.6149 175.676 2 -16.7000 175.700 TC 30 7 341
1974050S19184 1974 15 SP MM NOT_NAMED 1974-02-23 21:00:00 TS -16.3464 175.556 main 240 240 P________PP_P_ SH231974 -16.3600 175.525 -1 -16.3600 175.525 TC 35 -16.3031 175.579 2 -16.3625 175.595 TC 30 7 349
1974050S19184 1974 15 SP MM NOT_NAMED 1974-02-24 00:00:00 TS -16.0000 175.500 main 270 O________OO_O_ jtwc_sh SH231974 -16.0000 175.500 -1 -16.0000 175.500 TC 35 -16.0000 175.500 2 -16.0000 175.500 TC 30 7 350

デジタル台風データ・検索

IBTrACS Databaseについて

本データベースは、米国NOAAが公開する1842年以降の世界の熱帯低気圧のベストトラックデータアーカイブInternational Best Track Archive for Climate Stewardship (IBTrACS)を、ウェブで閲覧しやすい形式に変換したものです。

最終更新日:2021-12-01